sensor_id;sensor_type;location;lat;lon;timestamp;P1;durP1;ratioP1;P2;durP2;ratioP2
7719;SDS011;3902;49.474;8.616;2023-04-24T00:00:34;2.10;;;1.37;;
7719;SDS011;3902;49.474;8.616;2023-04-24T00:03:00;1.40;;;1.30;;
7719;SDS011;3902;49.474;8.616;2023-04-24T00:05:28;1.40;;;1.30;;
7719;SDS011;3902;49.474;8.616;2023-04-24T00:07:53;2.30;;;1.20;;
7719;SDS011;3902;49.474;8.616;2023-04-24T00:10:19;1.60;;;1.47;;
7719;SDS011;3902;49.474;8.616;2023-04-24T00:12:45;1.37;;;1.27;;
7719;SDS011;3902;49.474;8.616;2023-04-24T00:15:10;1.87;;;1.30;;
7719;SDS011;3902;49.474;8.616;2023-04-24T00:17:36;1.70;;;1.40;;
7719;SDS011;3902;49.474;8.616;2023-04-24T00:20:02;1.40;;;1.30;;
7719;SDS011;3902;49.474;8.616;2023-04-24T00:22:29;1.53;;;1.30;;
7719;SDS011;3902;49.474;8.616;2023-04-24T00:24:55;1.97;;;1.67;;
7719;SDS011;3902;49.474;8.616;2023-04-24T00:27:21;1.43;;;1.30;;
7719;SDS011;3902;49.474;8.616;2023-04-24T00:29:47;2.13;;;1.57;;
7719;SDS011;3902;49.474;8.616;2023-04-24T00:32:13;1.40;;;1.30;;
7719;SDS011;3902;49.474;8.616;2023-04-24T00:34:39;1.53;;;1.10;;
7719;SDS011;3902;49.474;8.616;2023-04-24T00:37:07;2.10;;;1.60;;
7719;SDS011;3902;49.474;8.616;2023-04-24T00:39:32;3.40;;;1.37;;
7719;SDS011;3902;49.474;8.616;2023-04-24T00:41:58;1.30;;;1.20;;
7719;SDS011;3902;49.474;8.616;2023-04-24T00:44:24;1.70;;;1.30;;
7719;SDS011;3902;49.474;8.616;2023-04-24T00:46:49;1.67;;;1.20;;
7719;SDS011;3902;49.474;8.616;2023-04-24T00:49:19;1.63;;;1.30;;
7719;SDS011;3902;49.474;8.616;2023-04-24T00:51:45;2.10;;;1.10;;
7719;SDS011;3902;49.474;8.616;2023-04-24T00:54:11;2.23;;;1.50;;
7719;SDS011;3902;49.474;8.616;2023-04-24T00:56:37;1.70;;;1.27;;
7719;SDS011;3902;49.474;8.616;2023-04-24T00:59:03;1.83;;;1.43;;
7719;SDS011;3902;49.474;8.616;2023-04-24T01:01:29;2.30;;;1.40;;
7719;SDS011;3902;49.474;8.616;2023-04-24T01:03:55;1.77;;;1.30;;
7719;SDS011;3902;49.474;8.616;2023-04-24T01:06:22;1.80;;;1.30;;
7719;SDS011;3902;49.474;8.616;2023-04-24T01:08:48;1.30;;;1.20;;
7719;SDS011;3902;49.474;8.616;2023-04-24T01:11:14;1.30;;;1.20;;
7719;SDS011;3902;49.474;8.616;2023-04-24T01:13:40;1.93;;;1.30;;
7719;SDS011;3902;49.474;8.616;2023-04-24T01:16:06;1.60;;;1.40;;
7719;SDS011;3902;49.474;8.616;2023-04-24T01:18:31;1.53;;;1.20;;
7719;SDS011;3902;49.474;8.616;2023-04-24T01:20:57;2.80;;;1.50;;
7719;SDS011;3902;49.474;8.616;2023-04-24T01:23:24;3.10;;;1.70;;
7719;SDS011;3902;49.474;8.616;2023-04-24T01:25:50;1.30;;;1.20;;
7719;SDS011;3902;49.474;8.616;2023-04-24T01:28:16;1.60;;;1.43;;
7719;SDS011;3902;49.474;8.616;2023-04-24T01:30:42;3.80;;;1.40;;
7719;SDS011;3902;49.474;8.616;2023-04-24T01:33:08;1.57;;;1.47;;
7719;SDS011;3902;49.474;8.616;2023-04-24T01:35:33;1.60;;;1.30;;
7719;SDS011;3902;49.474;8.616;2023-04-24T01:38:00;4.50;;;1.53;;
7719;SDS011;3902;49.474;8.616;2023-04-24T01:40:26;3.07;;;1.40;;
7719;SDS011;3902;49.474;8.616;2023-04-24T01:42:52;1.67;;;1.20;;
7719;SDS011;3902;49.474;8.616;2023-04-24T01:45:18;1.47;;;1.33;;
7719;SDS011;3902;49.474;8.616;2023-04-24T01:47:43;1.83;;;1.50;;
7719;SDS011;3902;49.474;8.616;2023-04-24T01:50:10;2.60;;;1.50;;
7719;SDS011;3902;49.474;8.616;2023-04-24T01:52:36;1.50;;;1.40;;
7719;SDS011;3902;49.474;8.616;2023-04-24T01:55:04;2.50;;;1.37;;
7719;SDS011;3902;49.474;8.616;2023-04-24T01:57:31;1.30;;;1.20;;
7719;SDS011;3902;49.474;8.616;2023-04-24T01:59:57;1.47;;;1.20;;
7719;SDS011;3902;49.474;8.616;2023-04-24T02:02:23;3.83;;;1.60;;
7719;SDS011;3902;49.474;8.616;2023-04-24T02:04:54;1.87;;;1.57;;
7719;SDS011;3902;49.474;8.616;2023-04-24T02:07:20;1.70;;;1.50;;
7719;SDS011;3902;49.474;8.616;2023-04-24T02:09:46;2.27;;;1.80;;
7719;SDS011;3902;49.474;8.616;2023-04-24T02:12:12;2.37;;;1.40;;
7719;SDS011;3902;49.474;8.616;2023-04-24T02:14:38;3.03;;;1.30;;
7719;SDS011;3902;49.474;8.616;2023-04-24T02:17:03;2.10;;;1.50;;
7719;SDS011;3902;49.474;8.616;2023-04-24T02:19:29;1.83;;;1.40;;
7719;SDS011;3902;49.474;8.616;2023-04-24T02:21:55;1.73;;;1.13;;
7719;SDS011;3902;49.474;8.616;2023-04-24T02:24:21;1.77;;;1.20;;
7719;SDS011;3902;49.474;8.616;2023-04-24T02:26:46;2.27;;;1.40;;
7719;SDS011;3902;49.474;8.616;2023-04-24T02:29:12;1.27;;;1.10;;
7719;SDS011;3902;49.474;8.616;2023-04-24T02:31:37;1.43;;;1.20;;
7719;SDS011;3902;49.474;8.616;2023-04-24T02:34:03;2.87;;;1.50;;
7719;SDS011;3902;49.474;8.616;2023-04-24T02:36:28;2.90;;;1.37;;
7719;SDS011;3902;49.474;8.616;2023-04-24T02:38:55;3.27;;;1.50;;
7719;SDS011;3902;49.474;8.616;2023-04-24T02:41:20;2.83;;;1.53;;
7719;SDS011;3902;49.474;8.616;2023-04-24T02:43:46;1.60;;;1.40;;
7719;SDS011;3902;49.474;8.616;2023-04-24T02:46:11;2.20;;;1.57;;
7719;SDS011;3902;49.474;8.616;2023-04-24T02:48:37;2.40;;;1.67;;
7719;SDS011;3902;49.474;8.616;2023-04-24T02:51:03;1.80;;;1.53;;
7719;SDS011;3902;49.474;8.616;2023-04-24T02:53:28;1.97;;;1.50;;
7719;SDS011;3902;49.474;8.616;2023-04-24T02:55:55;2.47;;;1.67;;
7719;SDS011;3902;49.474;8.616;2023-04-24T02:58:21;1.53;;;1.43;;
7719;SDS011;3902;49.474;8.616;2023-04-24T03:00:47;1.90;;;1.80;;
7719;SDS011;3902;49.474;8.616;2023-04-24T03:03:13;1.60;;;1.50;;
7719;SDS011;3902;49.474;8.616;2023-04-24T03:05:39;1.67;;;1.57;;
7719;SDS011;3902;49.474;8.616;2023-04-24T03:08:04;1.67;;;1.57;;
7719;SDS011;3902;49.474;8.616;2023-04-24T03:10:30;2.30;;;1.80;;
7719;SDS011;3902;49.474;8.616;2023-04-24T03:12:55;1.60;;;1.50;;
7719;SDS011;3902;49.474;8.616;2023-04-24T03:15:21;2.13;;;1.60;;
7719;SDS011;3902;49.474;8.616;2023-04-24T03:17:46;3.50;;;1.60;;
7719;SDS011;3902;49.474;8.616;2023-04-24T03:20:12;2.67;;;1.50;;
7719;SDS011;3902;49.474;8.616;2023-04-24T03:22:38;3.13;;;1.80;;
7719;SDS011;3902;49.474;8.616;2023-04-24T03:25:04;2.93;;;1.70;;
7719;SDS011;3902;49.474;8.616;2023-04-24T03:27:30;1.73;;;1.63;;
7719;SDS011;3902;49.474;8.616;2023-04-24T03:29:55;2.47;;;1.77;;
7719;SDS011;3902;49.474;8.616;2023-04-24T03:32:21;1.77;;;1.67;;
7719;SDS011;3902;49.474;8.616;2023-04-24T03:34:47;1.80;;;1.60;;
7719;SDS011;3902;49.474;8.616;2023-04-24T03:37:13;1.50;;;1.40;;
7719;SDS011;3902;49.474;8.616;2023-04-24T03:39:39;1.30;;;1.20;;
7719;SDS011;3902;49.474;8.616;2023-04-24T03:42:05;3.00;;;1.60;;
7719;SDS011;3902;49.474;8.616;2023-04-24T03:44:30;1.80;;;1.70;;
7719;SDS011;3902;49.474;8.616;2023-04-24T03:46:57;1.40;;;1.30;;
7719;SDS011;3902;49.474;8.616;2023-04-24T03:49:23;3.43;;;1.70;;
7719;SDS011;3902;49.474;8.616;2023-04-24T03:51:48;2.83;;;1.30;;
7719;SDS011;3902;49.474;8.616;2023-04-24T03:54:14;1.50;;;1.40;;
7719;SDS011;3902;49.474;8.616;2023-04-24T03:56:39;5.23;;;1.40;;
7719;SDS011;3902;49.474;8.616;2023-04-24T03:59:05;1.60;;;1.50;;
7719;SDS011;3902;49.474;8.616;2023-04-24T04:01:30;1.60;;;1.50;;
7719;SDS011;3902;49.474;8.616;2023-04-24T04:03:56;1.87;;;1.70;;
7719;SDS011;3902;49.474;8.616;2023-04-24T04:06:21;2.60;;;1.70;;
7719;SDS011;3902;49.474;8.616;2023-04-24T04:08:47;2.20;;;1.80;;
7719;SDS011;3902;49.474;8.616;2023-04-24T04:11:13;1.73;;;1.63;;
7719;SDS011;3902;49.474;8.616;2023-04-24T04:13:38;1.63;;;1.53;;
7719;SDS011;3902;49.474;8.616;2023-04-24T04:16:04;2.07;;;1.50;;
7719;SDS011;3902;49.474;8.616;2023-04-24T04:18:30;1.50;;;1.30;;
7719;SDS011;3902;49.474;8.616;2023-04-24T04:20:55;2.67;;;1.80;;
7719;SDS011;3902;49.474;8.616;2023-04-24T04:23:22;1.50;;;1.40;;
7719;SDS011;3902;49.474;8.616;2023-04-24T04:25:47;1.40;;;1.30;;
7719;SDS011;3902;49.474;8.616;2023-04-24T04:28:14;2.73;;;1.93;;
7719;SDS011;3902;49.474;8.616;2023-04-24T04:30:40;1.90;;;1.80;;
7719;SDS011;3902;49.474;8.616;2023-04-24T04:33:06;1.73;;;1.57;;
7719;SDS011;3902;49.474;8.616;2023-04-24T04:35:32;1.80;;;1.70;;
7719;SDS011;3902;49.474;8.616;2023-04-24T04:37:58;2.03;;;1.80;;
7719;SDS011;3902;49.474;8.616;2023-04-24T04:40:24;2.00;;;1.90;;
7719;SDS011;3902;49.474;8.616;2023-04-24T04:42:49;2.07;;;1.70;;
7719;SDS011;3902;49.474;8.616;2023-04-24T04:45:18;2.03;;;1.70;;
7719;SDS011;3902;49.474;8.616;2023-04-24T04:47:43;1.80;;;1.70;;
7719;SDS011;3902;49.474;8.616;2023-04-24T04:50:09;1.70;;;1.53;;
7719;SDS011;3902;49.474;8.616;2023-04-24T04:52:35;1.80;;;1.70;;
7719;SDS011;3902;49.474;8.616;2023-04-24T04:55:01;1.70;;;1.60;;
7719;SDS011;3902;49.474;8.616;2023-04-24T04:57:27;2.47;;;1.70;;
7719;SDS011;3902;49.474;8.616;2023-04-24T04:59:52;2.07;;;1.83;;
7719;SDS011;3902;49.474;8.616;2023-04-24T05:02:18;1.70;;;1.60;;
7719;SDS011;3902;49.474;8.616;2023-04-24T05:04:43;2.73;;;1.73;;
7719;SDS011;3902;49.474;8.616;2023-04-24T05:07:09;2.10;;;1.90;;
7719;SDS011;3902;49.474;8.616;2023-04-24T05:09:35;1.63;;;1.53;;
7719;SDS011;3902;49.474;8.616;2023-04-24T05:12:01;1.80;;;1.70;;
7719;SDS011;3902;49.474;8.616;2023-04-24T05:14:27;3.97;;;1.80;;
7719;SDS011;3902;49.474;8.616;2023-04-24T05:16:52;2.10;;;1.70;;
7719;SDS011;3902;49.474;8.616;2023-04-24T05:19:18;1.90;;;1.80;;
7719;SDS011;3902;49.474;8.616;2023-04-24T05:21:43;2.00;;;1.80;;
7719;SDS011;3902;49.474;8.616;2023-04-24T05:24:09;2.10;;;2.00;;
7719;SDS011;3902;49.474;8.616;2023-04-24T05:26:34;3.10;;;1.60;;
7719;SDS011;3902;49.474;8.616;2023-04-24T05:29:00;2.13;;;1.93;;
7719;SDS011;3902;49.474;8.616;2023-04-24T05:31:26;2.10;;;1.90;;
7719;SDS011;3902;49.474;8.616;2023-04-24T05:33:51;1.93;;;1.83;;
7719;SDS011;3902;49.474;8.616;2023-04-24T05:36:17;2.83;;;1.90;;
7719;SDS011;3902;49.474;8.616;2023-04-24T05:38:42;2.20;;;2.00;;
7719;SDS011;3902;49.474;8.616;2023-04-24T05:41:08;1.93;;;1.83;;
7719;SDS011;3902;49.474;8.616;2023-04-24T05:43:33;2.13;;;1.93;;
7719;SDS011;3902;49.474;8.616;2023-04-24T05:45:59;1.70;;;1.60;;
7719;SDS011;3902;49.474;8.616;2023-04-24T05:48:25;1.93;;;1.73;;
7719;SDS011;3902;49.474;8.616;2023-04-24T05:50:51;2.27;;;1.90;;
7719;SDS011;3902;49.474;8.616;2023-04-24T05:53:17;2.23;;;2.03;;
7719;SDS011;3902;49.474;8.616;2023-04-24T05:55:43;2.47;;;2.27;;
7719;SDS011;3902;49.474;8.616;2023-04-24T05:58:09;2.20;;;1.83;;
7719;SDS011;3902;49.474;8.616;2023-04-24T06:00:34;2.30;;;2.10;;
7719;SDS011;3902;49.474;8.616;2023-04-24T06:03:00;3.20;;;2.10;;
7719;SDS011;3902;49.474;8.616;2023-04-24T06:05:27;4.50;;;2.33;;
7719;SDS011;3902;49.474;8.616;2023-04-24T06:07:53;2.70;;;2.50;;
7719;SDS011;3902;49.474;8.616;2023-04-24T06:10:18;2.50;;;2.30;;
7719;SDS011;3902;49.474;8.616;2023-04-24T06:12:44;2.57;;;2.37;;
7719;SDS011;3902;49.474;8.616;2023-04-24T06:15:09;2.90;;;2.37;;
7719;SDS011;3902;49.474;8.616;2023-04-24T06:17:35;2.70;;;2.50;;
7719;SDS011;3902;49.474;8.616;2023-04-24T06:20:01;3.17;;;2.97;;
7719;SDS011;3902;49.474;8.616;2023-04-24T06:22:29;2.80;;;2.57;;
7719;SDS011;3902;49.474;8.616;2023-04-24T06:24:55;2.90;;;2.70;;
7719;SDS011;3902;49.474;8.616;2023-04-24T06:27:20;3.40;;;3.10;;
7719;SDS011;3902;49.474;8.616;2023-04-24T06:29:46;3.63;;;3.33;;
7719;SDS011;3902;49.474;8.616;2023-04-24T06:32:17;3.10;;;2.80;;
7719;SDS011;3902;49.474;8.616;2023-04-24T06:34:43;3.20;;;2.90;;
7719;SDS011;3902;49.474;8.616;2023-04-24T06:37:08;3.13;;;2.87;;
7719;SDS011;3902;49.474;8.616;2023-04-24T06:39:34;3.23;;;3.00;;
7719;SDS011;3902;49.474;8.616;2023-04-24T06:41:59;3.17;;;2.97;;
7719;SDS011;3902;49.474;8.616;2023-04-24T06:44:25;3.17;;;2.87;;
7719;SDS011;3902;49.474;8.616;2023-04-24T06:46:50;3.20;;;2.90;;
7719;SDS011;3902;49.474;8.616;2023-04-24T06:49:16;2.50;;;2.30;;
7719;SDS011;3902;49.474;8.616;2023-04-24T06:51:42;3.30;;;2.90;;
7719;SDS011;3902;49.474;8.616;2023-04-24T06:54:07;3.13;;;2.80;;
7719;SDS011;3902;49.474;8.616;2023-04-24T06:56:33;2.43;;;2.20;;
7719;SDS011;3902;49.474;8.616;2023-04-24T06:58:59;2.50;;;2.30;;
7719;SDS011;3902;49.474;8.616;2023-04-24T07:01:24;2.17;;;1.93;;
7719;SDS011;3902;49.474;8.616;2023-04-24T07:03:50;3.33;;;2.07;;
7719;SDS011;3902;49.474;8.616;2023-04-24T07:06:15;2.17;;;1.70;;
7719;SDS011;3902;49.474;8.616;2023-04-24T07:08:43;1.87;;;1.70;;
7719;SDS011;3902;49.474;8.616;2023-04-24T07:11:09;1.77;;;1.67;;
7719;SDS011;3902;49.474;8.616;2023-04-24T07:13:34;1.70;;;1.50;;
7719;SDS011;3902;49.474;8.616;2023-04-24T07:16:00;1.87;;;1.70;;
7719;SDS011;3902;49.474;8.616;2023-04-24T07:18:26;4.60;;;1.70;;
7719;SDS011;3902;49.474;8.616;2023-04-24T07:20:51;1.73;;;1.57;;
7719;SDS011;3902;49.474;8.616;2023-04-24T07:23:17;1.53;;;1.43;;
7719;SDS011;3902;49.474;8.616;2023-04-24T07:25:43;2.23;;;1.70;;
7719;SDS011;3902;49.474;8.616;2023-04-24T07:28:09;1.93;;;1.83;;
7719;SDS011;3902;49.474;8.616;2023-04-24T07:30:34;3.93;;;2.97;;
7719;SDS011;3902;49.474;8.616;2023-04-24T07:33:00;2.30;;;1.90;;
7719;SDS011;3902;49.474;8.616;2023-04-24T07:35:26;3.13;;;2.10;;
7719;SDS011;3902;49.474;8.616;2023-04-24T07:37:55;2.57;;;1.80;;
7719;SDS011;3902;49.474;8.616;2023-04-24T07:40:21;1.90;;;1.80;;
7719;SDS011;3902;49.474;8.616;2023-04-24T07:42:47;2.90;;;1.70;;
7719;SDS011;3902;49.474;8.616;2023-04-24T07:45:15;1.70;;;1.60;;
7719;SDS011;3902;49.474;8.616;2023-04-24T07:47:41;1.90;;;1.80;;
7719;SDS011;3902;49.474;8.616;2023-04-24T07:50:08;2.90;;;1.90;;
7719;SDS011;3902;49.474;8.616;2023-04-24T07:52:35;1.90;;;1.67;;
7719;SDS011;3902;49.474;8.616;2023-04-24T07:55:00;4.63;;;1.90;;
7719;SDS011;3902;49.474;8.616;2023-04-24T07:57:27;2.33;;;2.13;;
7719;SDS011;3902;49.474;8.616;2023-04-24T07:59:53;2.10;;;1.80;;
7719;SDS011;3902;49.474;8.616;2023-04-24T08:02:19;1.90;;;1.80;;
7719;SDS011;3902;49.474;8.616;2023-04-24T08:04:44;2.80;;;1.90;;
7719;SDS011;3902;49.474;8.616;2023-04-24T08:07:10;2.00;;;1.90;;
7719;SDS011;3902;49.474;8.616;2023-04-24T08:09:37;2.50;;;2.30;;
7719;SDS011;3902;49.474;8.616;2023-04-24T08:12:03;2.40;;;1.90;;
7719;SDS011;3902;49.474;8.616;2023-04-24T08:14:28;2.20;;;2.00;;
7719;SDS011;3902;49.474;8.616;2023-04-24T08:16:54;2.60;;;2.40;;
7719;SDS011;3902;49.474;8.616;2023-04-24T08:19:21;2.47;;;2.27;;
7719;SDS011;3902;49.474;8.616;2023-04-24T08:21:46;2.53;;;2.33;;
7719;SDS011;3902;49.474;8.616;2023-04-24T08:24:12;3.40;;;2.47;;
7719;SDS011;3902;49.474;8.616;2023-04-24T08:26:37;2.20;;;2.00;;
7719;SDS011;3902;49.474;8.616;2023-04-24T08:29:03;3.10;;;2.27;;
7719;SDS011;3902;49.474;8.616;2023-04-24T08:31:29;2.27;;;2.07;;
7719;SDS011;3902;49.474;8.616;2023-04-24T08:33:54;3.50;;;2.10;;
7719;SDS011;3902;49.474;8.616;2023-04-24T08:36:20;3.00;;;2.50;;
7719;SDS011;3902;49.474;8.616;2023-04-24T08:38:46;4.03;;;1.90;;
7719;SDS011;3902;49.474;8.616;2023-04-24T08:41:12;2.53;;;2.20;;
7719;SDS011;3902;49.474;8.616;2023-04-24T08:43:40;3.00;;;2.57;;
7719;SDS011;3902;49.474;8.616;2023-04-24T08:46:06;3.73;;;2.30;;
7719;SDS011;3902;49.474;8.616;2023-04-24T08:48:33;2.80;;;2.60;;
7719;SDS011;3902;49.474;8.616;2023-04-24T08:50:59;3.90;;;2.33;;
7719;SDS011;3902;49.474;8.616;2023-04-24T08:53:26;4.53;;;2.43;;
7719;SDS011;3902;49.474;8.616;2023-04-24T08:55:52;4.07;;;3.00;;
7719;SDS011;3902;49.474;8.616;2023-04-24T08:58:20;3.20;;;2.40;;
7719;SDS011;3902;49.474;8.616;2023-04-24T09:00:45;3.23;;;2.60;;
7719;SDS011;3902;49.474;8.616;2023-04-24T09:03:12;2.50;;;2.10;;
7719;SDS011;3902;49.474;8.616;2023-04-24T09:05:42;2.03;;;1.90;;
7719;SDS011;3902;49.474;8.616;2023-04-24T09:08:10;3.07;;;2.77;;
7719;SDS011;3902;49.474;8.616;2023-04-24T09:10:38;5.03;;;2.23;;
7719;SDS011;3902;49.474;8.616;2023-04-24T09:13:05;2.13;;;1.93;;
7719;SDS011;3902;49.474;8.616;2023-04-24T09:15:31;2.20;;;2.00;;
7719;SDS011;3902;49.474;8.616;2023-04-24T09:17:57;3.83;;;2.13;;
7719;SDS011;3902;49.474;8.616;2023-04-24T09:20:22;3.10;;;2.30;;
7719;SDS011;3902;49.474;8.616;2023-04-24T09:22:48;2.63;;;2.43;;
7719;SDS011;3902;49.474;8.616;2023-04-24T09:25:20;2.27;;;2.07;;
7719;SDS011;3902;49.474;8.616;2023-04-24T09:27:46;5.30;;;2.53;;
7719;SDS011;3902;49.474;8.616;2023-04-24T09:30:12;5.00;;;2.60;;
7719;SDS011;3902;49.474;8.616;2023-04-24T09:32:38;4.07;;;3.13;;
7719;SDS011;3902;49.474;8.616;2023-04-24T09:35:05;5.53;;;2.67;;
7719;SDS011;3902;49.474;8.616;2023-04-24T09:37:36;3.50;;;2.30;;
7719;SDS011;3902;49.474;8.616;2023-04-24T09:40:16;3.07;;;2.23;;
7719;SDS011;3902;49.474;8.616;2023-04-24T09:45:18;3.23;;;2.67;;
7719;SDS011;3902;49.474;8.616;2023-04-24T09:47:44;3.97;;;2.30;;
7719;SDS011;3902;49.474;8.616;2023-04-24T09:52:46;2.63;;;2.20;;
7719;SDS011;3902;49.474;8.616;2023-04-24T09:55:20;3.13;;;2.60;;
7719;SDS011;3902;49.474;8.616;2023-04-24T09:57:49;2.80;;;2.60;;
7719;SDS011;3902;49.474;8.616;2023-04-24T10:00:25;3.43;;;2.97;;
7719;SDS011;3902;49.474;8.616;2023-04-24T10:03:01;4.87;;;4.37;;
7719;SDS011;3902;49.474;8.616;2023-04-24T10:05:28;8.20;;;7.27;;
7719;SDS011;3902;49.474;8.616;2023-04-24T10:07:59;6.13;;;4.40;;
7719;SDS011;3902;49.474;8.616;2023-04-24T10:10:26;3.50;;;3.00;;
7719;SDS011;3902;49.474;8.616;2023-04-24T10:12:51;6.23;;;2.80;;
7719;SDS011;3902;49.474;8.616;2023-04-24T10:15:18;2.80;;;2.60;;
7719;SDS011;3902;49.474;8.616;2023-04-24T10:17:46;4.53;;;2.27;;
7719;SDS011;3902;49.474;8.616;2023-04-24T10:20:22;3.73;;;2.50;;
7719;SDS011;3902;49.474;8.616;2023-04-24T10:22:49;2.50;;;2.30;;
7719;SDS011;3902;49.474;8.616;2023-04-24T10:25:19;2.50;;;2.30;;
7719;SDS011;3902;49.474;8.616;2023-04-24T10:27:47;2.30;;;2.10;;
7719;SDS011;3902;49.474;8.616;2023-04-24T10:30:14;3.00;;;2.40;;
7719;SDS011;3902;49.474;8.616;2023-04-24T10:32:40;5.47;;;3.90;;
7719;SDS011;3902;49.474;8.616;2023-04-24T10:35:06;2.70;;;2.07;;
7719;SDS011;3902;49.474;8.616;2023-04-24T10:37:46;2.13;;;1.93;;
7719;SDS011;3902;49.474;8.616;2023-04-24T10:40:17;2.07;;;1.87;;
7719;SDS011;3902;49.474;8.616;2023-04-24T10:42:46;2.33;;;1.63;;
7719;SDS011;3902;49.474;8.616;2023-04-24T10:45:20;2.20;;;1.90;;
7719;SDS011;3902;49.474;8.616;2023-04-24T10:47:56;1.70;;;1.60;;
7719;SDS011;3902;49.474;8.616;2023-04-24T10:50:23;1.97;;;1.67;;
7719;SDS011;3902;49.474;8.616;2023-04-24T10:52:49;2.70;;;2.27;;
7719;SDS011;3902;49.474;8.616;2023-04-24T10:55:35;2.63;;;1.77;;
7719;SDS011;3902;49.474;8.616;2023-04-24T10:58:08;2.50;;;1.93;;
7719;SDS011;3902;49.474;8.616;2023-04-24T11:00:34;2.30;;;2.10;;
7719;SDS011;3902;49.474;8.616;2023-04-24T11:03:03;2.23;;;2.03;;
7719;SDS011;3902;49.474;8.616;2023-04-24T11:05:48;3.10;;;2.80;;
7719;SDS011;3902;49.474;8.616;2023-04-24T11:08:23;6.13;;;2.13;;
7719;SDS011;3902;49.474;8.616;2023-04-24T11:11:06;2.47;;;2.27;;
7719;SDS011;3902;49.474;8.616;2023-04-24T11:16:28;2.40;;;2.20;;
7719;SDS011;3902;49.474;8.616;2023-04-24T11:29:44;3.00;;;2.50;;
7719;SDS011;3902;49.474;8.616;2023-04-24T11:34:58;3.10;;;2.80;;
7719;SDS011;3902;49.474;8.616;2023-04-24T11:37:34;2.80;;;2.50;;
7719;SDS011;3902;49.474;8.616;2023-04-24T11:40:00;2.77;;;2.30;;
7719;SDS011;3902;49.474;8.616;2023-04-24T11:42:26;4.43;;;3.60;;
7719;SDS011;3902;49.474;8.616;2023-04-24T11:44:53;3.53;;;2.63;;
7719;SDS011;3902;49.474;8.616;2023-04-24T11:47:29;3.40;;;3.10;;
7719;SDS011;3902;49.474;8.616;2023-04-24T11:49:56;3.70;;;3.00;;
7719;SDS011;3902;49.474;8.616;2023-04-24T11:52:22;3.30;;;3.00;;
7719;SDS011;3902;49.474;8.616;2023-04-24T11:54:48;3.60;;;3.30;;
7719;SDS011;3902;49.474;8.616;2023-04-24T11:57:15;4.23;;;3.47;;
7719;SDS011;3902;49.474;8.616;2023-04-24T11:59:41;5.40;;;3.63;;
7719;SDS011;3902;49.474;8.616;2023-04-24T12:02:07;4.70;;;3.10;;
7719;SDS011;3902;49.474;8.616;2023-04-24T12:04:41;3.60;;;3.30;;
7719;SDS011;3902;49.474;8.616;2023-04-24T12:07:07;3.97;;;3.60;;
7719;SDS011;3902;49.474;8.616;2023-04-24T12:09:43;4.20;;;3.80;;
7719;SDS011;3902;49.474;8.616;2023-04-24T12:12:11;3.87;;;3.33;;
7719;SDS011;3902;49.474;8.616;2023-04-24T12:14:44;6.17;;;3.60;;
7719;SDS011;3902;49.474;8.616;2023-04-24T12:17:14;4.33;;;3.90;;
7719;SDS011;3902;49.474;8.616;2023-04-24T12:19:47;5.73;;;3.23;;
7719;SDS011;3902;49.474;8.616;2023-04-24T12:22:13;4.70;;;3.30;;
7719;SDS011;3902;49.474;8.616;2023-04-24T12:24:57;6.23;;;3.33;;
7719;SDS011;3902;49.474;8.616;2023-04-24T12:27:25;3.20;;;2.87;;
7719;SDS011;3902;49.474;8.616;2023-04-24T12:30:02;4.20;;;3.00;;
7719;SDS011;3902;49.474;8.616;2023-04-24T12:32:29;5.10;;;3.17;;
7719;SDS011;3902;49.474;8.616;2023-04-24T12:34:56;2.60;;;2.40;;
7719;SDS011;3902;49.474;8.616;2023-04-24T12:37:22;6.13;;;3.30;;
7719;SDS011;3902;49.474;8.616;2023-04-24T12:40:00;3.00;;;2.73;;
7719;SDS011;3902;49.474;8.616;2023-04-24T12:42:26;5.33;;;3.10;;
7719;SDS011;3902;49.474;8.616;2023-04-24T12:44:56;5.20;;;3.50;;
7719;SDS011;3902;49.474;8.616;2023-04-24T12:47:29;4.10;;;3.20;;
7719;SDS011;3902;49.474;8.616;2023-04-24T12:49:56;4.47;;;3.27;;
7719;SDS011;3902;49.474;8.616;2023-04-24T12:52:22;6.97;;;2.60;;
7719;SDS011;3902;49.474;8.616;2023-04-24T12:54:49;4.83;;;2.80;;
7719;SDS011;3902;49.474;8.616;2023-04-24T12:57:15;4.33;;;3.33;;
7719;SDS011;3902;49.474;8.616;2023-04-24T12:59:41;5.10;;;3.17;;
7719;SDS011;3902;49.474;8.616;2023-04-24T13:02:07;3.77;;;2.80;;
7719;SDS011;3902;49.474;8.616;2023-04-24T13:04:34;4.63;;;3.37;;
7719;SDS011;3902;49.474;8.616;2023-04-24T13:06:59;3.73;;;3.00;;
7719;SDS011;3902;49.474;8.616;2023-04-24T13:09:25;4.53;;;3.17;;
7719;SDS011;3902;49.474;8.616;2023-04-24T13:11:50;6.30;;;3.30;;
7719;SDS011;3902;49.474;8.616;2023-04-24T13:14:16;3.70;;;3.00;;
7719;SDS011;3902;49.474;8.616;2023-04-24T13:16:41;4.67;;;3.40;;
7719;SDS011;3902;49.474;8.616;2023-04-24T13:19:07;4.40;;;3.50;;
7719;SDS011;3902;49.474;8.616;2023-04-24T13:21:32;3.07;;;2.77;;
7719;SDS011;3902;49.474;8.616;2023-04-24T13:23:58;3.70;;;3.33;;
7719;SDS011;3902;49.474;8.616;2023-04-24T13:26:23;5.20;;;3.10;;
7719;SDS011;3902;49.474;8.616;2023-04-24T13:28:49;3.43;;;3.13;;
7719;SDS011;3902;49.474;8.616;2023-04-24T13:31:15;4.30;;;3.03;;
7719;SDS011;3902;49.474;8.616;2023-04-24T13:33:41;3.43;;;3.13;;
7719;SDS011;3902;49.474;8.616;2023-04-24T13:36:06;4.07;;;2.97;;
7719;SDS011;3902;49.474;8.616;2023-04-24T13:38:32;3.37;;;2.70;;
7719;SDS011;3902;49.474;8.616;2023-04-24T13:40:57;5.37;;;3.40;;
7719;SDS011;3902;49.474;8.616;2023-04-24T13:43:23;3.63;;;2.73;;
7719;SDS011;3902;49.474;8.616;2023-04-24T13:45:49;5.00;;;3.80;;
7719;SDS011;3902;49.474;8.616;2023-04-24T13:48:14;3.67;;;3.13;;
7719;SDS011;3902;49.474;8.616;2023-04-24T13:50:41;4.00;;;2.83;;
7719;SDS011;3902;49.474;8.616;2023-04-24T13:53:07;3.70;;;3.33;;
7719;SDS011;3902;49.474;8.616;2023-04-24T13:55:32;3.63;;;3.13;;
7719;SDS011;3902;49.474;8.616;2023-04-24T13:57:58;3.00;;;2.70;;
7719;SDS011;3902;49.474;8.616;2023-04-24T14:00:23;3.13;;;2.83;;
7719;SDS011;3902;49.474;8.616;2023-04-24T14:02:49;4.33;;;2.70;;
7719;SDS011;3902;49.474;8.616;2023-04-24T14:05:15;4.50;;;3.30;;
7719;SDS011;3902;49.474;8.616;2023-04-24T14:07:41;3.70;;;3.40;;
7719;SDS011;3902;49.474;8.616;2023-04-24T14:10:06;3.37;;;2.97;;
7719;SDS011;3902;49.474;8.616;2023-04-24T14:12:32;3.80;;;3.17;;
7719;SDS011;3902;49.474;8.616;2023-04-24T14:14:58;4.67;;;3.70;;
7719;SDS011;3902;49.474;8.616;2023-04-24T14:17:24;3.80;;;3.20;;
7719;SDS011;3902;49.474;8.616;2023-04-24T14:19:49;4.50;;;3.40;;
7719;SDS011;3902;49.474;8.616;2023-04-24T14:22:16;6.00;;;3.20;;
7719;SDS011;3902;49.474;8.616;2023-04-24T14:24:42;4.40;;;3.00;;
7719;SDS011;3902;49.474;8.616;2023-04-24T14:27:08;3.70;;;3.17;;
7719;SDS011;3902;49.474;8.616;2023-04-24T14:29:33;3.37;;;3.07;;
7719;SDS011;3902;49.474;8.616;2023-04-24T14:31:59;4.17;;;3.10;;
7719;SDS011;3902;49.474;8.616;2023-04-24T14:34:24;3.37;;;2.97;;
7719;SDS011;3902;49.474;8.616;2023-04-24T14:36:50;4.40;;;3.03;;
7719;SDS011;3902;49.474;8.616;2023-04-24T14:39:17;4.27;;;3.23;;
7719;SDS011;3902;49.474;8.616;2023-04-24T14:41:42;3.93;;;3.57;;
7719;SDS011;3902;49.474;8.616;2023-04-24T14:44:08;4.00;;;3.33;;
7719;SDS011;3902;49.474;8.616;2023-04-24T14:46:33;9.70;;;3.40;;
7719;SDS011;3902;49.474;8.616;2023-04-24T14:48:59;3.70;;;3.30;;
7719;SDS011;3902;49.474;8.616;2023-04-24T14:51:25;3.30;;;2.67;;
7719;SDS011;3902;49.474;8.616;2023-04-24T14:53:50;4.63;;;3.80;;
7719;SDS011;3902;49.474;8.616;2023-04-24T14:56:16;5.03;;;3.80;;
7719;SDS011;3902;49.474;8.616;2023-04-24T14:58:42;4.33;;;3.60;;
7719;SDS011;3902;49.474;8.616;2023-04-24T15:01:07;4.77;;;3.67;;
7719;SDS011;3902;49.474;8.616;2023-04-24T15:03:33;4.00;;;3.30;;
7719;SDS011;3902;49.474;8.616;2023-04-24T15:05:58;5.13;;;3.30;;
7719;SDS011;3902;49.474;8.616;2023-04-24T15:08:24;4.00;;;3.53;;
7719;SDS011;3902;49.474;8.616;2023-04-24T15:10:50;3.80;;;3.50;;
7719;SDS011;3902;49.474;8.616;2023-04-24T15:13:15;5.03;;;3.30;;
7719;SDS011;3902;49.474;8.616;2023-04-24T15:15:41;3.93;;;3.53;;
7719;SDS011;3902;49.474;8.616;2023-04-24T15:18:07;5.97;;;3.90;;
7719;SDS011;3902;49.474;8.616;2023-04-24T15:20:35;4.23;;;3.83;;
7719;SDS011;3902;49.474;8.616;2023-04-24T15:23:01;4.70;;;3.30;;
7719;SDS011;3902;49.474;8.616;2023-04-24T15:25:27;3.30;;;3.00;;
7719;SDS011;3902;49.474;8.616;2023-04-24T15:27:52;2.97;;;2.77;;
7719;SDS011;3902;49.474;8.616;2023-04-24T15:30:18;3.93;;;2.80;;
7719;SDS011;3902;49.474;8.616;2023-04-24T15:32:44;3.40;;;3.10;;